Time;durP1;ratioP1;P1;durP2;ratioP2;P2;SDS_P1;SDS_P2;PMS_P1;PMS_P2;Temp;Humidity;BMP_temperature;BMP_pressure;BME280_temperature;BME280_humidity;BME280_pressure;Samples;Min_cycle;Max_cycle;Signal;HPM_P1;HPM_P2
2023/09/20 00:00:30;;;;;;;;;;;21.90;92.60;;;;;;5057104;28;19915;-55
2023/09/20 00:02:56;;;;;;;;;;;22.00;92.70;;;;;;5074937;28;20244;-54
2023/09/20 00:05:22;;;;;;;;;;;22.00;92.70;;;;;;5075127;28;19914;-54
2023/09/20 00:07:50;;;;;;;;;;;22.00;92.70;;;;;;5075040;28;19955;-55
2023/09/20 00:10:18;;;;;;;;;;;22.00;92.70;;;;;;5074893;28;19963;-55
2023/09/20 00:12:44;;;;;;;;;;;21.90;92.70;;;;;;5074677;28;19947;-56
2023/09/20 00:15:09;;;;;;;;;;;22.00;92.70;;;;;;5075016;28;19909;-53
2023/09/20 00:17:36;;;;;;;;;;;22.00;92.70;;;;;;5074812;28;19962;-55
2023/09/20 00:20:11;;;;;;;;;;;21.90;92.70;;;;;;5074742;28;19912;-55
2023/09/20 00:22:41;;;;;;;;;;;21.90;92.70;;;;;;5074897;28;19915;-53
2023/09/20 00:25:07;;;;;;;;;;;22.00;92.70;;;;;;5074491;28;19995;-55
2023/09/20 00:27:34;;;;;;;;;;;21.90;92.70;;;;;;5074637;28;20288;-56
2023/09/20 00:30:00;;;;;;;;;;;21.90;92.70;;;;;;5074266;28;20417;-55
2023/09/20 00:32:25;;;;;;;;;;;21.90;92.70;;;;;;5074650;28;19909;-56
2023/09/20 00:34:51;;;;;;;;;;;21.90;92.70;;;;;;5074201;28;19916;-51
2023/09/20 00:37:16;;;;;;;;;;;21.90;92.70;;;;;;5074521;28;20355;-56
2023/09/20 00:39:42;;;;;;;;;;;21.90;92.70;;;;;;5074418;28;19913;-55
2023/09/20 00:42:08;;;;;;;;;;;21.90;92.70;;;;;;5074554;28;20007;-54
2023/09/20 00:44:35;;;;;;;;;;;21.90;92.80;;;;;;5074151;28;20344;-52
2023/09/20 00:47:03;;;;;;;;;;;21.90;92.70;;;;;;5074410;28;19912;-56
2023/09/20 00:49:29;;;;;;;;;;;21.90;92.80;;;;;;5073695;28;19931;-54
2023/09/20 00:51:55;;;;;;;;;;;21.90;92.70;;;;;;5074220;28;19912;-51
2023/09/20 00:54:22;;;;;;;;;;;21.90;92.70;;;;;;5074336;28;19999;-56
2023/09/20 00:56:47;;;;;;;;;;;21.90;92.70;;;;;;5074242;28;20252;-54
2023/09/20 00:59:13;;;;;;;;;;;21.90;92.70;;;;;;5074259;28;20015;-53
2023/09/20 01:01:39;;;;;;;;;;;21.90;92.70;;;;;;5074111;28;20355;-55
2023/09/20 01:04:05;;;;;;;;;;;21.90;92.70;;;;;;5074260;28;19962;-56
2023/09/20 01:06:32;;;;;;;;;;;21.90;92.70;;;;;;5074076;28;20302;-56
2023/09/20 01:08:58;;;;;;;;;;;21.90;92.70;;;;;;5074039;28;19908;-56
2023/09/20 01:11:25;;;;;;;;;;;21.90;92.70;;;;;;5073694;28;20003;-56
2023/09/20 01:13:51;;;;;;;;;;;21.90;92.70;;;;;;5073741;28;20271;-52
2023/09/20 01:16:16;;;;;;;;;;;21.90;92.70;;;;;;5073586;28;19951;-56
2023/09/20 01:18:45;;;;;;;;;;;21.90;92.70;;;;;;5073742;28;19912;-55
2023/09/20 01:21:13;;;;;;;;;;;21.90;92.70;;;;;;5073951;28;19909;-52
2023/09/20 01:23:42;;;;;;;;;;;21.90;92.70;;;;;;5073999;28;19908;-56
2023/09/20 01:26:08;;;;;;;;;;;21.90;92.70;;;;;;5073882;28;19908;-54
2023/09/20 01:28:35;;;;;;;;;;;21.90;92.70;;;;;;5073929;28;19909;-54
2023/09/20 01:31:04;;;;;;;;;;;21.90;92.70;;;;;;5073416;28;19975;-55
2023/09/20 01:33:30;;;;;;;;;;;21.90;92.70;;;;;;5073744;28;19958;-55
2023/09/20 01:35:55;;;;;;;;;;;21.90;92.70;;;;;;5073855;28;19912;-54
2023/09/20 01:38:21;;;;;;;;;;;21.90;92.70;;;;;;5073535;28;19985;-55
2023/09/20 01:40:46;;;;;;;;;;;21.90;92.70;;;;;;5055561;28;19908;-55
2023/09/20 01:43:13;;;;;;;;;;;21.90;92.70;;;;;;5074046;28;20066;-55
2023/09/20 01:45:42;;;;;;;;;;;21.90;92.70;;;;;;5073681;28;19999;-56
2023/09/20 01:48:10;;;;;;;;;;;21.90;92.70;;;;;;5073673;28;19915;-55
2023/09/20 01:50:36;;;;;;;;;;;21.90;92.70;;;;;;5073777;28;19924;-55
2023/09/20 01:53:08;;;;;;;;;;;21.90;92.80;;;;;;5073383;28;19919;-56
2023/09/20 01:55:36;;;;;;;;;;;21.90;92.80;;;;;;5073674;28;19909;-55
2023/09/20 01:58:12;;;;;;;;;;;21.90;92.80;;;;;;5073954;28;20373;-54
2023/09/20 02:00:40;;;;;;;;;;;21.90;92.80;;;;;;5059164;28;19908;-55
2023/09/20 02:03:18;;;;;;;;;;;21.90;92.80;;;;;;5077490;28;19954;-56
2023/09/20 02:05:47;;;;;;;;;;;21.90;92.80;;;;;;5077207;28;19915;-55
2023/09/20 02:08:13;;;;;;;;;;;21.90;92.80;;;;;;5077051;28;19966;-56
2023/09/20 02:10:39;;;;;;;;;;;21.90;92.80;;;;;;5077314;28;19916;-56
2023/09/20 02:13:05;;;;;;;;;;;21.90;92.90;;;;;;5077138;28;19916;-54
2023/09/20 02:15:34;;;;;;;;;;;21.90;92.80;;;;;;5076918;28;19954;-54
2023/09/20 02:18:01;;;;;;;;;;;21.90;92.90;;;;;;5076903;28;20434;-56
2023/09/20 02:20:27;;;;;;;;;;;21.90;92.90;;;;;;5076766;28;20278;-56
2023/09/20 02:22:53;;;;;;;;;;;21.90;92.90;;;;;;5077392;28;19920;-55
2023/09/20 02:25:22;;;;;;;;;;;21.90;92.90;;;;;;5077403;28;20290;-55
2023/09/20 02:27:51;;;;;;;;;;;21.90;92.90;;;;;;5077284;28;19914;-55
2023/09/20 02:30:24;;;;;;;;;;;21.90;92.90;;;;;;5076992;28;20248;-56
2023/09/20 02:32:54;;;;;;;;;;;21.90;92.90;;;;;;5077308;28;19920;-55
2023/09/20 02:35:20;;;;;;;;;;;21.90;92.90;;;;;;5076496;28;20375;-54
2023/09/20 02:37:46;;;;;;;;;;;21.90;92.90;;;;;;5076785;28;19954;-56
2023/09/20 02:40:18;;;;;;;;;;;21.90;92.90;;;;;;5076387;28;19912;-55
2023/09/20 02:42:45;;;;;;;;;;;21.90;92.90;;;;;;5076821;28;20377;-56
2023/09/20 02:45:12;;;;;;;;;;;21.90;92.90;;;;;;5075525;28;19909;-56
2023/09/20 02:47:41;;;;;;;;;;;21.90;92.90;;;;;;5076274;28;20360;-54
2023/09/20 02:50:07;;;;;;;;;;;21.90;92.90;;;;;;5076334;28;19921;-56
2023/09/20 02:52:36;;;;;;;;;;;21.90;92.90;;;;;;5076517;28;19908;-55
2023/09/20 02:55:06;;;;;;;;;;;21.90;92.90;;;;;;5076123;28;19923;-55
2023/09/20 02:57:32;;;;;;;;;;;21.90;92.90;;;;;;5076390;28;19912;-54
2023/09/20 02:59:59;;;;;;;;;;;21.90;92.90;;;;;;5076114;28;20389;-54
2023/09/20 03:02:24;;;;;;;;;;;21.90;92.90;;;;;;5076378;28;20007;-56
2023/09/20 03:04:53;;;;;;;;;;;21.90;92.90;;;;;;5076438;28;20428;-56
2023/09/20 03:07:20;;;;;;;;;;;21.90;92.90;;;;;;5075908;28;19909;-53
2023/09/20 03:09:46;;;;;;;;;;;21.90;92.90;;;;;;5074889;28;19974;-55
2023/09/20 03:12:13;;;;;;;;;;;21.90;93.00;;;;;;5074969;28;19912;-56
2023/09/20 03:14:38;;;;;;;;;;;21.80;92.90;;;;;;5075854;28;19912;-54
2023/09/20 03:17:04;;;;;;;;;;;21.80;93.00;;;;;;5076094;28;19931;-55
2023/09/20 03:19:31;;;;;;;;;;;21.80;93.00;;;;;;5076014;28;19915;-55
2023/09/20 03:21:57;;;;;;;;;;;21.80;93.00;;;;;;5075931;28;20338;-54
2023/09/20 03:24:22;;;;;;;;;;;21.80;93.00;;;;;;5057854;28;19916;-53
2023/09/20 03:26:51;;;;;;;;;;;21.80;93.00;;;;;;5075821;28;19909;-55
2023/09/20 03:29:17;;;;;;;;;;;21.80;93.00;;;;;;5075873;28;19915;-56
2023/09/20 03:31:44;;;;;;;;;;;21.80;93.00;;;;;;5075441;28;19916;-56
2023/09/20 03:34:11;;;;;;;;;;;21.80;93.00;;;;;;5075745;28;19961;-56
2023/09/20 03:36:38;;;;;;;;;;;21.80;93.00;;;;;;5075488;28;20372;-55
2023/09/20 03:39:05;;;;;;;;;;;21.80;93.00;;;;;;5075499;28;19909;-53
2023/09/20 03:41:31;;;;;;;;;;;21.80;93.00;;;;;;5075526;28;19915;-57
2023/09/20 03:43:56;;;;;;;;;;;21.80;93.00;;;;;;5075818;28;19908;-55
2023/09/20 03:46:22;;;;;;;;;;;21.80;93.00;;;;;;5057898;28;19916;-54
2023/09/20 03:48:47;;;;;;;;;;;21.80;93.00;;;;;;5074987;28;20019;-56
2023/09/20 03:51:15;;;;;;;;;;;21.80;93.10;;;;;;5075345;28;19916;-55
2023/09/20 03:53:44;;;;;;;;;;;21.80;93.10;;;;;;5075239;28;19908;-55
2023/09/20 03:56:11;;;;;;;;;;;21.80;93.10;;;;;;5075393;28;20007;-54
2023/09/20 03:58:37;;;;;;;;;;;21.80;93.10;;;;;;5074733;28;20332;-57
2023/09/20 04:01:02;;;;;;;;;;;21.80;93.10;;;;;;5075520;28;19916;-55
2023/09/20 04:03:28;;;;;;;;;;;21.80;93.10;;;;;;5074859;28;20359;-54
2023/09/20 04:05:57;;;;;;;;;;;21.80;93.30;;;;;;5074949;28;19909;-55
2023/09/20 04:08:22;;;;;;;;;;;21.80;93.10;;;;;;5074954;28;20256;-56
2023/09/20 04:10:48;;;;;;;;;;;21.80;93.10;;;;;;5074915;28;19923;-56
2023/09/20 04:13:14;;;;;;;;;;;21.80;93.10;;;;;;5074910;28;19908;-54
2023/09/20 04:15:42;;;;;;;;;;;21.80;93.10;;;;;;5074886;28;20015;-53
2023/09/20 04:18:08;;;;;;;;;;;21.80;93.10;;;;;;5074813;28;19930;-56
2023/09/20 04:20:34;;;;;;;;;;;21.80;93.10;;;;;;5074782;28;19909;-55
2023/09/20 04:22:59;;;;;;;;;;;21.80;93.00;;;;;;5074376;28;20390;-56
2023/09/20 04:25:25;;;;;;;;;;;21.80;93.00;;;;;;5056722;28;19909;-55
2023/09/20 04:27:50;;;;;;;;;;;21.80;93.00;;;;;;5074687;28;19915;-57
2023/09/20 04:30:18;;;;;;;;;;;21.80;93.00;;;;;;5074441;28;19923;-55
2023/09/20 04:32:43;;;;;;;;;;;21.80;93.00;;;;;;5074296;28;19908;-56
2023/09/20 04:35:09;;;;;;;;;;;21.80;93.00;;;;;;5074485;28;19909;-56
2023/09/20 04:37:34;;;;;;;;;;;21.80;93.00;;;;;;5074144;28;19963;-54
2023/09/20 04:40:00;;;;;;;;;;;21.80;93.00;;;;;;5074393;28;19947;-54
2023/09/20 04:42:27;;;;;;;;;;;21.80;93.00;;;;;;5074144;28;19908;-53
2023/09/20 04:44:53;;;;;;;;;;;21.80;93.00;;;;;;5074301;28;19931;-54
2023/09/20 04:47:19;;;;;;;;;;;21.80;93.00;;;;;;5074021;28;20359;-57
2023/09/20 04:49:45;;;;;;;;;;;21.70;92.90;;;;;;5074059;28;19920;-55
2023/09/20 04:52:11;;;;;;;;;;;21.70;92.90;;;;;;5072954;28;20481;-56
2023/09/20 04:54:36;;;;;;;;;;;21.70;92.90;;;;;;5073783;28;19908;-57
2023/09/20 04:57:04;;;;;;;;;;;21.70;92.90;;;;;;5074374;28;19912;-55
2023/09/20 04:59:31;;;;;;;;;;;21.70;92.90;;;;;;5073947;28;20425;-56
2023/09/20 05:01:56;;;;;;;;;;;21.70;92.90;;;;;;5074466;28;19958;-57
2023/09/20 05:04:21;;;;;;;;;;;21.70;92.90;;;;;;5073782;28;19912;-55
2023/09/20 05:06:48;;;;;;;;;;;21.70;92.90;;;;;;5073860;28;19908;-55
2023/09/20 05:09:13;;;;;;;;;;;21.70;92.90;;;;;;5071242;28;20270;-57
2023/09/20 05:11:39;;;;;;;;;;;21.70;92.90;;;;;;5073569;28;19913;-56
2023/09/20 05:14:07;;;;;;;;;;;21.70;93.00;;;;;;5073426;28;19919;-55
2023/09/20 05:16:33;;;;;;;;;;;21.70;93.10;;;;;;5073940;28;19908;-56
2023/09/20 05:18:59;;;;;;;;;;;21.70;93.10;;;;;;5073724;28;19916;-57
2023/09/20 05:21:25;;;;;;;;;;;21.70;93.20;;;;;;5088127;28;19908;-56
2023/09/20 05:23:50;;;;;;;;;;;21.70;93.20;;;;;;5093904;28;19908;-53
2023/09/20 05:26:18;;;;;;;;;;;21.70;93.20;;;;;;5071711;28;20299;-56
2023/09/20 05:28:44;;;;;;;;;;;21.70;93.20;;;;;;5052247;28;19909;-54
2023/09/20 05:31:09;;;;;;;;;;;21.70;93.20;;;;;;5060520;28;20275;-55
2023/09/20 05:33:35;;;;;;;;;;;21.70;93.20;;;;;;5073408;28;20007;-57
2023/09/20 05:36:00;;;;;;;;;;;21.70;93.30;;;;;;5075672;28;19931;-55
2023/09/20 05:38:26;;;;;;;;;;;21.70;93.30;;;;;;5077873;28;19952;-54
2023/09/20 05:40:52;;;;;;;;;;;21.70;93.30;;;;;;5076138;28;19919;-56
2023/09/20 05:43:18;;;;;;;;;;;21.70;93.30;;;;;;5077350;28;19908;-54
2023/09/20 05:45:43;;;;;;;;;;;21.70;93.20;;;;;;5077659;28;19909;-55
2023/09/20 05:48:12;;;;;;;;;;;21.60;92.80;;;;;;5077430;28;19975;-57
2023/09/20 05:50:38;;;;;;;;;;;21.70;93.00;;;;;;5077448;28;20361;-52
2023/09/20 05:53:06;;;;;;;;;;;21.70;93.10;;;;;;5077001;28;19912;-56
2023/09/20 05:55:37;;;;;;;;;;;21.60;93.10;;;;;;5077053;28;20015;-55
2023/09/20 05:58:03;;;;;;;;;;;21.60;93.20;;;;;;5076792;28;20290;-55
2023/09/20 06:00:29;;;;;;;;;;;21.70;93.20;;;;;;5077153;28;19909;-55
2023/09/20 06:02:58;;;;;;;;;;;21.60;93.20;;;;;;5088120;28;19915;-57
2023/09/20 06:05:24;;;;;;;;;;;21.60;93.20;;;;;;5097299;28;20060;-55
2023/09/20 06:07:51;;;;;;;;;;;21.60;93.30;;;;;;5097076;28;20402;-55
2023/09/20 06:10:17;;;;;;;;;;;21.60;93.30;;;;;;5097290;28;20366;-53
2023/09/20 06:12:43;;;;;;;;;;;21.60;93.30;;;;;;5078273;28;20359;-54
2023/09/20 06:15:08;;;;;;;;;;;21.60;93.30;;;;;;5076805;28;19908;-56
2023/09/20 06:17:34;;;;;;;;;;;21.60;93.30;;;;;;5076983;28;20325;-56
2023/09/20 06:20:00;;;;;;;;;;;21.60;93.40;;;;;;5075579;28;19915;-54
2023/09/20 06:22:31;;;;;;;;;;;21.60;93.40;;;;;;5076365;28;19940;-56
2023/09/20 06:24:58;;;;;;;;;;;21.60;93.40;;;;;;5076992;28;19982;-55
2023/09/20 06:27:26;;;;;;;;;;;21.60;93.40;;;;;;5076487;28;19999;-54
2023/09/20 06:29:52;;;;;;;;;;;21.60;93.50;;;;;;5076731;28;20011;-56
2023/09/20 06:32:18;;;;;;;;;;;21.60;93.50;;;;;;5082539;28;20007;-56
2023/09/20 06:34:43;;;;;;;;;;;21.60;93.50;;;;;;5087037;28;19913;-55
2023/09/20 06:37:11;;;;;;;;;;;21.60;93.50;;;;;;5094695;28;20347;-56
2023/09/20 06:39:37;;;;;;;;;;;21.60;93.50;;;;;;5085700;28;20007;-56
2023/09/20 06:42:03;;;;;;;;;;;21.60;93.60;;;;;;5096698;28;20369;-56
2023/09/20 06:44:35;;;;;;;;;;;21.50;93.60;;;;;;5079624;28;19939;-54
2023/09/20 06:47:00;;;;;;;;;;;21.50;93.60;;;;;;5048451;28;20364;-54
2023/09/20 06:49:28;;;;;;;;;;;21.50;93.60;;;;;;5055773;28;19974;-54
2023/09/20 06:51:56;;;;;;;;;;;21.50;93.70;;;;;;5047966;28;19968;-54
2023/09/20 06:54:22;;;;;;;;;;;21.50;93.70;;;;;;5056119;28;20402;-56
2023/09/20 06:56:48;;;;;;;;;;;21.50;93.70;;;;;;5074712;28;19913;-55
2023/09/20 06:59:16;;;;;;;;;;;21.50;93.70;;;;;;5083343;28;19912;-57
2023/09/20 07:01:42;;;;;;;;;;;21.50;93.70;;;;;;5073882;28;19922;-56
2023/09/20 07:04:09;;;;;;;;;;;21.50;93.70;;;;;;5076165;28;19909;-57
2023/09/20 07:06:35;;;;;;;;;;;21.50;93.70;;;;;;5078491;28;20050;-57
2023/09/20 07:09:00;;;;;;;;;;;21.50;93.60;;;;;;5055798;28;19974;-57
2023/09/20 07:11:28;;;;;;;;;;;21.50;93.60;;;;;;5055635;28;20345;-57
2023/09/20 07:13:54;;;;;;;;;;;21.50;93.60;;;;;;5071145;28;19912;-57
2023/09/20 07:16:20;;;;;;;;;;;21.50;93.60;;;;;;5075675;28;19912;-56
2023/09/20 07:18:46;;;;;;;;;;;21.50;93.60;;;;;;5075756;28;19991;-56
2023/09/20 07:21:14;;;;;;;;;;;21.50;93.60;;;;;;5091407;28;19959;-56
2023/09/20 07:23:41;;;;;;;;;;;21.50;93.60;;;;;;5075525;28;20348;-52
2023/09/20 07:26:07;;;;;;;;;;;21.50;93.60;;;;;;5078857;28;19994;-57
2023/09/20 07:28:36;;;;;;;;;;;21.50;93.60;;;;;;5074800;28;19920;-54
2023/09/20 07:31:03;;;;;;;;;;;21.50;93.60;;;;;;5070320;28;19924;-56
2023/09/20 07:33:38;;;;;;;;;;;21.50;93.60;;;;;;5081132;28;20314;-57
2023/09/20 07:36:05;;;;;;;;;;;21.50;93.60;;;;;;5088436;28;19920;-56
2023/09/20 07:38:32;;;;;;;;;;;21.50;93.60;;;;;;5077507;28;19909;-57
2023/09/20 07:41:08;;;;;;;;;;;21.50;93.60;;;;;;5075186;28;20316;-55
2023/09/20 07:43:34;;;;;;;;;;;21.50;93.60;;;;;;5075571;28;20001;-57
2023/09/20 07:46:00;;;;;;;;;;;21.40;93.50;;;;;;5077770;28;19916;-57
2023/09/20 07:48:27;;;;;;;;;;;21.40;93.50;;;;;;5075006;28;19944;-56
2023/09/20 07:50:53;;;;;;;;;;;21.40;93.60;;;;;;5086215;28;19946;-57
2023/09/20 07:53:19;;;;;;;;;;;21.40;93.60;;;;;;5078504;28;20002;-55
2023/09/20 07:55:57;;;;;;;;;;;21.50;93.70;;;;;;5084576;28;20386;-55
2023/09/20 07:58:23;;;;;;;;;;;21.40;93.40;;;;;;5055969;28;19962;-56
2023/09/20 08:00:51;;;;;;;;;;;21.40;93.30;;;;;;5079692;28;19912;-57
2023/09/20 08:03:18;;;;;;;;;;;21.40;93.40;;;;;;5085791;28;20014;-57
2023/09/20 08:05:44;;;;;;;;;;;21.40;93.40;;;;;;5074579;28;19908;-57
2023/09/20 08:08:10;;;;;;;;;;;21.40;93.30;;;;;;5074522;28;19909;-56
2023/09/20 08:10:37;;;;;;;;;;;21.40;93.20;;;;;;5084643;28;19924;-56
2023/09/20 08:13:06;;;;;;;;;;;21.40;93.10;;;;;;5086052;28;19913;-56
2023/09/20 08:15:36;;;;;;;;;;;21.40;93.10;;;;;;5074637;28;19953;-56
2023/09/20 08:20:47;;;;;;;;;;;21.40;93.30;;;;;;5052414;28;19936;-57
2023/09/20 09:01:37;;;;;;;;;;;21.40;93.30;;;;;;5093935;28;19915;-56
2023/09/20 09:04:07;;;;;;;;;;;21.40;93.40;;;;;;5094208;28;20284;-55
2023/09/20 09:06:33;;;;;;;;;;;21.40;93.40;;;;;;5094102;28;19915;-53
2023/09/20 09:08:59;;;;;;;;;;;21.40;93.50;;;;;;5093350;28;20298;-57
2023/09/20 09:11:25;;;;;;;;;;;21.40;93.50;;;;;;5092810;28;19916;-57
2023/09/20 09:13:51;;;;;;;;;;;21.40;93.50;;;;;;5094024;28;19908;-56
2023/09/20 09:16:18;;;;;;;;;;;21.40;93.40;;;;;;5075963;28;19985;-56
2023/09/20 09:18:44;;;;;;;;;;;21.40;93.30;;;;;;5093992;28;19995;-56
2023/09/20 09:21:12;;;;;;;;;;;21.40;93.50;;;;;;5093698;28;20362;-56
2023/09/20 09:23:44;;;;;;;;;;;21.40;93.40;;;;;;5076248;28;20007;-55
2023/09/20 09:26:10;;;;;;;;;;;21.40;93.30;;;;;;5094137;28;19937;-56
2023/09/20 09:28:36;;;;;;;;;;;21.40;93.20;;;;;;5094109;28;20349;-55
2023/09/20 09:31:02;;;;;;;;;;;21.40;93.10;;;;;;5093460;28;19924;-56
2023/09/20 09:33:28;;;;;;;;;;;21.40;93.00;;;;;;5093881;28;19908;-56
2023/09/20 09:35:54;;;;;;;;;;;21.40;92.90;;;;;;5093945;28;19915;-53
2023/09/20 09:38:21;;;;;;;;;;;21.40;93.20;;;;;;5075712;28;19912;-57
2023/09/20 09:40:51;;;;;;;;;;;21.40;93.20;;;;;;5093906;28;20006;-55
2023/09/20 09:43:17;;;;;;;;;;;21.40;93.30;;;;;;5092707;28;19909;-53
2023/09/20 09:45:46;;;;;;;;;;;21.40;93.40;;;;;;5093440;28;20366;-56
2023/09/20 09:48:14;;;;;;;;;;;21.40;93.40;;;;;;5075306;28;19908;-56
2023/09/20 09:50:40;;;;;;;;;;;21.40;93.40;;;;;;5093873;28;19963;-55
2023/09/20 09:53:08;;;;;;;;;;;21.40;93.40;;;;;;5093836;28;19943;-52
2023/09/20 09:55:33;;;;;;;;;;;21.40;93.30;;;;;;5093628;28;19908;-55
2023/09/20 09:58:04;;;;;;;;;;;21.40;93.30;;;;;;5093743;28;19916;-55
2023/09/20 10:00:30;;;;;;;;;;;21.40;93.30;;;;;;5090332;28;20373;-55
2023/09/20 10:03:01;;;;;;;;;;;21.40;93.30;;;;;;5090965;28;19916;-54
2023/09/20 10:05:27;;;;;;;;;;;21.40;93.10;;;;;;5075895;28;19958;-53
2023/09/20 10:08:01;;;;;;;;;;;21.40;92.60;;;;;;5073974;28;19916;-58
2023/09/20 10:10:27;;;;;;;;;;;21.40;92.60;;;;;;5061003;28;20326;-62
2023/09/20 10:12:53;;;;;;;;;;;21.40;92.80;;;;;;5073989;28;19948;-54
2023/09/20 10:15:19;;;;;;;;;;;21.40;92.50;;;;;;5077965;28;19950;-53
2023/09/20 10:17:45;;;;;;;;;;;21.40;92.50;;;;;;5073846;28;19908;-53
2023/09/20 10:20:15;;;;;;;;;;;21.40;92.50;;;;;;5091564;28;20363;-49
2023/09/20 10:22:41;;;;;;;;;;;21.40;92.60;;;;;;5096797;28;19908;-54
2023/09/20 10:25:27;;;;;;;;;;;21.40;92.60;;;;;;5097212;28;20216;-54
2023/09/20 10:27:53;;;;;;;;;;;21.40;92.80;;;;;;5076978;28;20016;-50
2023/09/20 10:30:20;;;;;;;;;;;21.40;93.00;;;;;;5076466;28;20094;-52
2023/09/20 10:32:47;;;;;;;;;;;21.40;93.00;;;;;;5079901;28;20035;-55
2023/09/20 10:35:23;;;;;;;;;;;21.40;93.10;;;;;;5064957;28;19916;-55
2023/09/20 10:38:01;;;;;;;;;;;21.40;93.00;;;;;;5089577;28;19947;-55
2023/09/20 10:40:45;;;;;;;;;;;21.40;93.10;;;;;;5078233;28;19916;-51
2023/09/20 10:43:25;;;;;;;;;;;21.40;93.00;;;;;;5074256;28;19912;-53
2023/09/20 10:45:51;;;;;;;;;;;21.40;93.00;;;;;;5072952;28;19912;-53
2023/09/20 10:48:17;;;;;;;;;;;21.40;93.00;;;;;;5083551;28;20241;-55
2023/09/20 10:50:50;;;;;;;;;;;21.40;92.90;;;;;;5085945;28;20343;-52
2023/09/20 10:53:18;;;;;;;;;;;21.40;92.90;;;;;;5093764;28;19923;-53
2023/09/20 10:55:44;;;;;;;;;;;21.40;93.00;;;;;;5072387;28;19912;-55
2023/09/20 10:58:12;;;;;;;;;;;21.40;93.10;;;;;;5074749;28;19909;-53
2023/09/20 11:00:38;;;;;;;;;;;21.40;93.10;;;;;;5078117;28;20031;-53
2023/09/20 11:03:07;;;;;;;;;;;21.40;93.10;;;;;;5093922;28;19909;-55
2023/09/20 11:05:33;;;;;;;;;;;21.40;93.20;;;;;;5084730;28;19916;-53
2023/09/20 11:08:03;;;;;;;;;;;21.40;93.20;;;;;;5092112;28;19920;-52
2023/09/20 11:10:29;;;;;;;;;;;21.40;93.20;;;;;;5095047;28;19916;-54
2023/09/20 11:12:55;;;;;;;;;;;21.40;93.20;;;;;;5075731;28;19935;-53
2023/09/20 11:15:20;;;;;;;;;;;21.40;93.20;;;;;;5075818;28;20834;-54
2023/09/20 11:17:47;;;;;;;;;;;21.40;93.10;;;;;;5068235;28;19920;-52
2023/09/20 11:20:12;;;;;;;;;;;21.40;93.10;;;;;;5073539;28;19917;-53
2023/09/20 11:22:38;;;;;;;;;;;21.40;93.10;;;;;;5078441;28;19912;-54
2023/09/20 11:25:04;;;;;;;;;;;21.40;93.10;;;;;;5081160;28;19954;-55
2023/09/20 11:27:30;;;;;;;;;;;21.40;93.20;;;;;;5085112;28;19995;-53
2023/09/20 11:30:07;;;;;;;;;;;21.40;93.30;;;;;;5057149;28;19955;-55
2023/09/20 11:32:33;;;;;;;;;;;21.40;93.20;;;;;;5083146;28;19912;-55
2023/09/20 11:34:58;;;;;;;;;;;21.40;93.10;;;;;;5088681;28;19916;-55
2023/09/20 11:37:24;;;;;;;;;;;21.40;93.10;;;;;;5072756;28;19965;-53
2023/09/20 11:39:50;;;;;;;;;;;21.40;93.10;;;;;;5078210;28;19942;-55
2023/09/20 11:42:22;;;;;;;;;;;21.40;93.00;;;;;;5095618;28;19908;-55
2023/09/20 11:44:53;;;;;;;;;;;21.40;93.10;;;;;;5091810;28;20384;-54
2023/09/20 11:47:19;;;;;;;;;;;21.40;93.10;;;;;;5081877;28;20007;-53
2023/09/20 11:49:45;;;;;;;;;;;21.40;93.10;;;;;;5075479;28;20010;-54
2023/09/20 11:52:10;;;;;;;;;;;21.40;93.20;;;;;;5074821;28;19917;-53
2023/09/20 11:54:38;;;;;;;;;;;21.40;93.30;;;;;;5075156;28;19916;-53
2023/09/20 11:57:03;;;;;;;;;;;21.40;93.30;;;;;;5074945;28;19912;-52
2023/09/20 11:59:28;;;;;;;;;;;21.40;93.30;;;;;;5075286;28;19919;-55
2023/09/20 12:01:54;;;;;;;;;;;21.40;93.20;;;;;;5078555;28;19966;-52
2023/09/20 12:04:20;;;;;;;;;;;21.40;93.30;;;;;;5095169;28;19908;-51
2023/09/20 12:06:46;;;;;;;;;;;21.40;93.20;;;;;;5095105;28;19908;-55
2023/09/20 12:09:12;;;;;;;;;;;21.40;93.20;;;;;;5080435;28;19908;-52
2023/09/20 12:11:38;;;;;;;;;;;21.40;93.30;;;;;;5083501;28;19923;-55
2023/09/20 12:14:04;;;;;;;;;;;21.40;93.30;;;;;;5094711;28;20370;-54
2023/09/20 12:16:29;;;;;;;;;;;21.40;93.30;;;;;;5093522;28;19916;-55
2023/09/20 12:18:55;;;;;;;;;;;21.40;93.30;;;;;;5092953;28;19908;-54
2023/09/20 12:21:21;;;;;;;;;;;21.40;93.20;;;;;;5093201;28;19961;-54
2023/09/20 12:23:47;;;;;;;;;;;21.40;93.30;;;;;;5093128;28;19915;-53
2023/09/20 12:26:13;;;;;;;;;;;21.40;93.30;;;;;;5093449;28;19912;-51
2023/09/20 12:28:39;;;;;;;;;;;21.40;93.30;;;;;;5074915;28;19915;-51
2023/09/20 12:31:05;;;;;;;;;;;21.40;93.20;;;;;;5075137;28;19916;-50
2023/09/20 12:33:31;;;;;;;;;;;21.40;93.20;;;;;;5094529;28;20009;-53
2023/09/20 12:36:00;;;;;;;;;;;21.40;93.40;;;;;;5094351;28;19908;-50
2023/09/20 12:38:29;;;;;;;;;;;21.40;93.30;;;;;;5094171;28;20358;-52
2023/09/20 12:40:56;;;;;;;;;;;21.40;93.40;;;;;;5094286;28;19915;-55
2023/09/20 12:43:21;;;;;;;;;;;21.40;93.40;;;;;;5094162;28;20275;-52
2023/09/20 12:45:47;;;;;;;;;;;21.40;93.40;;;;;;5094074;28;19908;-54
2023/09/20 12:48:12;;;;;;;;;;;21.40;93.40;;;;;;5094656;28;19912;-52
2023/09/20 12:50:38;;;;;;;;;;;21.40;93.40;;;;;;5094370;28;19920;-53
2023/09/20 12:53:05;;;;;;;;;;;21.40;93.40;;;;;;5094193;28;20373;-53
2023/09/20 12:55:31;;;;;;;;;;;21.40;93.40;;;;;;5094072;28;19920;-54
2023/09/20 12:57:57;;;;;;;;;;;21.40;93.40;;;;;;5093798;28;20376;-55
2023/09/20 13:00:23;;;;;;;;;;;21.40;93.40;;;;;;5093709;28;19912;-55
2023/09/20 13:02:49;;;;;;;;;;;21.40;93.40;;;;;;5087960;28;20015;-53
2023/09/20 13:05:15;;;;;;;;;;;21.40;93.40;;;;;;5083355;28;19991;-55
2023/09/20 13:07:40;;;;;;;;;;;21.40;93.40;;;;;;5064383;28;20283;-54
2023/09/20 13:10:13;;;;;;;;;;;21.40;93.40;;;;;;5086299;28;20019;-55
2023/09/20 13:12:40;;;;;;;;;;;21.40;93.50;;;;;;5093961;28;20354;-52
2023/09/20 13:15:08;;;;;;;;;;;21.40;93.50;;;;;;5093577;28;19980;-55
2023/09/20 13:17:36;;;;;;;;;;;21.40;93.40;;;;;;5074768;28;20062;-54
2023/09/20 13:20:03;;;;;;;;;;;21.40;93.40;;;;;;5073644;28;19951;-53
2023/09/20 13:22:29;;;;;;;;;;;21.40;93.40;;;;;;5076278;28;19912;-54
2023/09/20 13:24:55;;;;;;;;;;;21.40;93.40;;;;;;5070129;28;19912;-52
2023/09/20 13:27:22;;;;;;;;;;;21.40;93.50;;;;;;5084010;28;19912;-53
2023/09/20 13:29:48;;;;;;;;;;;21.40;93.50;;;;;;5091497;28;20377;-52
2023/09/20 13:32:13;;;;;;;;;;;21.40;93.50;;;;;;5061275;28;19924;-53
2023/09/20 13:34:40;;;;;;;;;;;21.40;93.50;;;;;;5080093;28;19958;-53
2023/09/20 13:37:06;;;;;;;;;;;21.40;93.50;;;;;;5074264;28;20393;-56
2023/09/20 13:39:32;;;;;;;;;;;21.40;93.60;;;;;;5071066;28;19913;-54
2023/09/20 13:41:58;;;;;;;;;;;21.40;93.60;;;;;;5072596;28;19920;-53
2023/09/20 13:44:23;;;;;;;;;;;21.40;93.60;;;;;;5071736;28;19912;-55
2023/09/20 13:46:49;;;;;;;;;;;21.40;93.60;;;;;;5078182;28;20378;-55
2023/09/20 13:49:15;;;;;;;;;;;21.40;93.60;;;;;;5084619;28;20282;-55
2023/09/20 13:51:41;;;;;;;;;;;21.40;93.70;;;;;;5075049;28;19916;-54
2023/09/20 13:54:07;;;;;;;;;;;21.40;93.70;;;;;;5091498;28;20370;-53
2023/09/20 13:56:33;;;;;;;;;;;21.40;93.70;;;;;;5094862;28;19909;-53
2023/09/20 13:58:58;;;;;;;;;;;21.40;93.70;;;;;;5097379;28;19912;-53
2023/09/20 14:01:24;;;;;;;;;;;21.40;93.70;;;;;;5097457;28;20351;-50
2023/09/20 14:03:50;;;;;;;;;;;21.40;93.70;;;;;;5097377;28;20396;-53
2023/09/20 14:06:18;;;;;;;;;;;21.50;93.80;;;;;;5087520;28;19955;-55
2023/09/20 14:08:44;;;;;;;;;;;21.40;93.80;;;;;;5069816;28;20003;-51
2023/09/20 14:11:12;;;;;;;;;;;21.40;93.80;;;;;;5097157;28;20007;-53
2023/09/20 14:13:40;;;;;;;;;;;21.40;93.80;;;;;;5095795;28;19916;-52
2023/09/20 14:16:05;;;;;;;;;;;21.40;93.70;;;;;;5094329;28;19912;-53
2023/09/20 14:18:31;;;;;;;;;;;21.40;93.90;;;;;;5089725;28;20264;-54
2023/09/20 14:21:02;;;;;;;;;;;21.40;93.90;;;;;;5061431;28;20010;-54
2023/09/20 14:23:29;;;;;;;;;;;21.40;93.90;;;;;;5097021;28;19908;-54
2023/09/20 14:25:54;;;;;;;;;;;21.40;93.90;;;;;;5075805;28;20337;-54
2023/09/20 14:28:20;;;;;;;;;;;21.40;94.00;;;;;;5096681;28;19908;-53
2023/09/20 14:30:45;;;;;;;;;;;21.40;93.90;;;;;;5094850;28;20019;-55
2023/09/20 14:33:11;;;;;;;;;;;21.40;93.90;;;;;;5093175;28;19919;-55
2023/09/20 14:35:37;;;;;;;;;;;21.40;93.90;;;;;;5073750;28;19999;-54
2023/09/20 14:38:02;;;;;;;;;;;21.40;93.90;;;;;;5082344;28;20375;-53
2023/09/20 14:40:28;;;;;;;;;;;21.40;93.80;;;;;;5078140;28;20046;-55
2023/09/20 14:42:55;;;;;;;;;;;21.40;93.80;;;;;;5091649;28;20347;-54
2023/09/20 14:45:29;;;;;;;;;;;21.40;93.80;;;;;;5078796;28;20270;-54
2023/09/20 14:47:56;;;;;;;;;;;21.40;93.80;;;;;;5086657;28;19994;-55
2023/09/20 14:50:22;;;;;;;;;;;21.40;93.80;;;;;;5085503;28;20017;-53
2023/09/20 14:52:48;;;;;;;;;;;21.40;93.80;;;;;;5078974;28;20007;-52
2023/09/20 14:55:15;;;;;;;;;;;21.40;93.80;;;;;;5077785;28;19912;-54